Time;durP1;ratioP1;P1;durP2;ratioP2;P2;SDS_P1;SDS_P2;PMS_P1;PMS_P2;Temp;Humidity;BMP_temperature;BMP_pressure;BME280_temperature;BME280_humidity;BME280_pressure;Samples;Min_cycle;Max_cycle;Signal;HPM_P1;HPM_P2
2022/01/29 00:00:12;;;;;;;30.23;13.60;;;;;;;5.62;100.00;102457.47;5035058;28;20053;-78
2022/01/29 00:02:41;;;;;;;30.48;15.45;;;;;;;5.63;100.00;102459.22;4988488;28;20037;-80
2022/01/29 00:05:10;;;;;;;28.10;13.70;;;;;;;5.63;100.00;102444.47;5020935;28;20074;-80
2022/01/29 00:07:42;;;;;;;28.27;15.40;;;;;;;5.64;100.00;102427.03;5036961;28;20048;-80
2022/01/29 00:10:12;;;;;;;28.80;14.27;;;;;;;5.66;100.00;102423.66;5030920;28;20041;-80
2022/01/29 00:12:41;;;;;;;33.97;15.63;;;;;;;5.68;100.00;102428.97;5020015;28;20068;-80
2022/01/29 00:15:10;;;;;;;37.38;15.00;;;;;;;5.68;100.00;102417.63;5016835;28;20418;-80
2022/01/29 00:17:39;;;;;;;27.40;13.88;;;;;;;5.69;100.00;102408.94;5029829;28;20065;-80
2022/01/29 00:20:08;;;;;;;27.15;14.35;;;;;;;5.70;100.00;102414.25;5029175;28;20178;-80
2022/01/29 00:22:37;;;;;;;35.42;14.23;;;;;;;5.71;100.00;102407.28;5044676;28;20059;-81
2022/01/29 00:25:06;;;;;;;29.58;13.63;;;;;;;5.72;100.00;102399.53;5057450;28;20056;-82
2022/01/29 00:27:36;;;;;;;31.48;14.35;;;;;;;5.73;100.00;102403.03;5019682;28;20745;-80
2022/01/29 00:30:09;;;;;;;;;;;;;;;5.74;100.00;102394.38;5031027;28;20028;-79
2022/01/29 00:32:37;;;;;;;24.42;12.77;;;;;;;5.74;100.00;102397.88;5040363;28;19927;-81
2022/01/29 00:35:06;;;;;;;34.03;13.88;;;;;;;5.75;100.00;102385.72;5029537;28;20313;-79
2022/01/29 00:37:35;;;;;;;29.98;14.50;;;;;;;5.76;100.00;102387.50;5052581;28;20048;-79
2022/01/29 00:40:05;;;;;;;39.75;16.30;;;;;;;5.76;100.00;102390.09;5045669;28;20049;-80
2022/01/29 00:42:34;;;;;;;32.38;14.93;;;;;;;5.77;100.00;102379.72;5029547;28;20032;-80
2022/01/29 00:45:03;;;;;;;33.55;15.05;;;;;;;5.77;100.00;102365.75;5030688;28;20040;-82
2022/01/29 00:47:31;;;;;;;34.13;15.77;;;;;;;5.75;100.00;102351.72;5051482;28;20387;-80
2022/01/29 00:50:00;;;;;;;38.35;14.05;;;;;;;5.74;100.00;102353.41;5005865;28;20056;-80
2022/01/29 00:52:29;;;;;;;32.28;13.75;;;;;;;5.74;100.00;102353.41;5040496;28;20076;-81
2022/01/29 00:54:57;;;;;;;30.27;14.95;;;;;;;5.74;100.00;102331.59;5033283;28;20045;-80
2022/01/29 00:57:28;;;;;;;32.17;15.10;;;;;;;5.74;100.00;102335.09;5042655;28;20086;-81
2022/01/29 00:59:57;;;;;;;29.33;14.57;;;;;;;5.75;100.00;102320.31;5020939;28;20052;-80
2022/01/29 01:02:25;;;;;;;27.40;15.95;;;;;;;5.75;100.00;102308.13;5045923;28;20170;-81
2022/01/29 01:04:54;;;;;;;30.92;16.08;;;;;;;5.75;100.00;102318.59;5043583;28;20045;-81
2022/01/29 01:07:22;;;;;;;31.75;15.40;;;;;;;5.76;100.00;102314.25;5020065;28;20072;-80
2022/01/29 01:09:51;;;;;;;28.17;14.93;;;;;;;5.77;100.00;102303.88;5053867;28;20040;-80
2022/01/29 01:12:19;;;;;;;30.30;16.38;;;;;;;5.78;100.00;102303.03;5060969;28;20045;-80
2022/01/29 01:14:48;;;;;;;28.92;15.38;;;;;;;5.79;100.00;102301.31;5061112;28;20052;-80
2022/01/29 01:17:18;;;;;;;29.35;15.43;;;;;;;5.81;100.00;102299.66;5048505;28;20032;-79
2022/01/29 01:19:47;;;;;;;37.53;17.75;;;;;;;5.82;100.00;102296.22;5050004;28;20048;-81
2022/01/29 01:22:16;;;;;;;35.90;16.42;;;;;;;5.83;100.00;102288.44;5025085;28;20049;-80
2022/01/29 01:24:45;;;;;;;27.98;15.82;;;;;;;5.85;100.00;102292.03;5047904;28;20052;-81
2022/01/29 01:27:16;;;;;;;37.22;15.55;;;;;;;5.88;100.00;102293.91;5065085;28;20329;-80
2022/01/29 01:29:45;;;;;;;30.15;16.70;;;;;;;5.90;100.00;102287.00;5026966;28;20057;-80
2022/01/29 01:32:13;;;;;;;28.17;15.40;;;;;;;5.92;100.00;102280.13;5038407;28;20438;-81
2022/01/29 01:34:47;;;;;;;26.42;16.63;;;;;;;5.95;100.00;102274.13;5050486;28;20060;-81
2022/01/29 01:37:40;;;;;;;29.63;15.10;;;;;;;5.99;100.00;102268.22;5012201;28;20037;-80
2022/01/29 01:40:09;;;;;;;29.85;15.20;;;;;;;6.03;100.00;102252.75;5040306;28;20279;-80
2022/01/29 01:42:37;;;;;;;30.48;15.82;;;;;;;6.07;100.00;102248.56;5034363;28;20518;-79
2022/01/29 01:45:06;;;;;;;26.00;14.48;;;;;;;6.12;100.00;102243.50;5023308;28;20043;-80
2022/01/29 01:47:35;;;;;;;30.77;15.85;;;;;;;6.15;100.00;102238.41;5053478;28;20059;-80
2022/01/29 01:50:06;;;;;;;30.08;14.20;;;;;;;6.19;100.00;102238.59;5066951;28;20040;-80
2022/01/29 01:52:35;;;;;;;27.92;15.30;;;;;;;6.22;100.00;102228.28;5039620;28;20055;-80
2022/01/29 01:55:04;;;;;;;34.40;15.10;;;;;;;6.26;100.00;102226.69;5024098;28;20036;-79
2022/01/29 01:57:32;;;;;;;29.60;13.82;;;;;;;6.30;100.00;102227.72;5036581;28;20056;-80
2022/01/29 02:00:01;;;;;;;31.33;15.23;;;;;;;6.32;100.00;102226.06;5045705;28;20049;-80
2022/01/29 02:02:39;;;;;;;31.55;14.55;;;;;;;6.35;100.00;102213.06;5048172;22;20058;-80
2022/01/29 02:05:18;;;;;;;36.80;15.40;;;;;;;6.36;100.00;102220.13;4959108;28;22822;-80
2022/01/29 02:07:47;;;;;;;29.42;16.05;;;;;;;6.39;100.00;102212.38;4961267;28;20046;-80
2022/01/29 02:10:17;;;;;;;31.73;15.10;;;;;;;6.42;100.00;102215.13;4943947;28;20140;-80
2022/01/29 02:12:50;;;;;;;29.95;15.07;;;;;;;6.44;100.00;102200.38;4946813;28;20058;-79
2022/01/29 02:15:21;;;;;;;32.60;15.05;;;;;;;6.48;100.00;102210.13;4966912;28;20247;-80
2022/01/29 02:17:50;;;;;;;35.22;15.93;;;;;;;6.49;100.00;102206.69;4979482;28;20491;-80
2022/01/29 02:20:25;;;;;;;34.53;16.00;;;;;;;6.51;100.00;102206.78;4966379;28;20714;-80
2022/01/29 02:22:54;;;;;;;25.73;13.75;;;;;;;6.51;100.00;102207.66;4963193;28;20058;-80
2022/01/29 02:25:31;;;;;;;36.33;16.00;;;;;;;6.52;100.00;102204.22;4976428;28;20280;-80
2022/01/29 02:28:11;;;;;;;27.67;14.63;;;;;;;6.53;100.00;102203.38;4980477;28;20151;-80
2022/01/29 02:30:44;;;;;;;27.60;14.55;;;;;;;6.55;100.00;102203.44;4948637;28;20046;-80
2022/01/29 02:33:15;;;;;;;31.15;15.00;;;;;;;6.55;100.00;102200.81;4952245;28;20492;-80
2022/01/29 02:35:48;;;;;;;27.67;13.55;;;;;;;6.56;100.00;102186.88;4949183;28;20050;-80
2022/01/29 02:38:20;;;;;;;23.45;12.70;;;;;;;6.57;100.00;102180.81;4960832;28;20041;-80
2022/01/29 02:40:51;;;;;;;28.70;14.50;;;;;;;6.57;100.00;102163.38;4971542;28;20059;-80
2022/01/29 02:43:26;;;;;;;24.85;12.98;;;;;;;6.60;100.00;102155.66;4983212;28;20034;-80
2022/01/29 02:45:55;;;;;;;35.92;15.18;;;;;;;6.61;100.00;102159.16;4981678;28;20261;-80
2022/01/29 02:48:25;;;;;;;30.38;13.50;;;;;;;6.63;100.00;102162.72;4946502;28;20073;-82
2022/01/29 02:50:54;;;;;;;27.42;13.07;;;;;;;6.62;100.00;102154.00;4952001;28;20050;-79
2022/01/29 02:53:23;;;;;;;28.88;14.18;;;;;;;6.64;100.00;102146.19;4965046;28;20061;-80
2022/01/29 02:55:52;;;;;;;26.83;12.82;;;;;;;6.67;100.00;102148.94;4961576;28;20342;-79
2022/01/29 02:58:20;;;;;;;26.67;12.80;;;;;;;6.69;100.00;102146.38;4968964;28;20043;-80
2022/01/29 03:00:48;;;;;;;31.10;13.32;;;;;;;6.71;100.00;102149.94;4971313;28;20151;-80
2022/01/29 03:03:17;;;;;;;28.15;13.50;;;;;;;6.72;100.00;102139.53;4982289;28;20058;-80
2022/01/29 03:05:45;;;;;;;25.85;12.30;;;;;;;6.74;100.00;102132.63;4977941;28;20069;-80
2022/01/29 03:08:14;;;;;;;28.10;13.10;;;;;;;6.74;100.00;102119.53;4965834;28;20042;-79
2022/01/29 03:10:43;;;;;;;27.52;12.93;;;;;;;6.76;100.00;102123.09;4940635;28;20540;-80
2022/01/29 03:13:11;;;;;;;24.70;12.07;;;;;;;6.78;100.00;102117.91;4975605;28;20031;-79
2022/01/29 03:15:40;;;;;;;24.98;12.48;;;;;;;6.79;100.00;102120.59;4969291;28;20427;-80
2022/01/29 03:18:08;;;;;;;30.00;12.52;;;;;;;6.82;100.00;102127.69;4957661;28;20392;-79
2022/01/29 03:20:38;;;;;;;27.45;13.32;;;;;;;6.82;100.00;102111.97;4978199;28;20491;-82
2022/01/29 03:23:06;;;;;;;29.08;13.43;;;;;;;6.83;100.00;102103.28;4949731;28;20388;-81
2022/01/29 03:25:35;;;;;;;25.45;12.98;;;;;;;6.85;100.00;102106.84;4946346;28;20042;-81
2022/01/29 03:28:03;;;;;;;28.05;12.32;;;;;;;6.85;100.00;102104.22;4950087;28;20038;-80
2022/01/29 03:30:32;;;;;;;29.58;12.57;;;;;;;6.85;100.00;102106.84;4938442;28;20046;-81
2022/01/29 03:33:02;;;;;;;32.83;13.25;;;;;;;6.87;100.00;102099.94;4975988;28;20038;-80
2022/01/29 03:35:30;;;;;;;29.83;13.35;;;;;;;6.88;100.00;102111.31;4979730;28;20496;-80
2022/01/29 03:37:58;;;;;;;27.88;12.48;;;;;;;6.89;100.00;102103.50;4979373;28;20050;-81
2022/01/29 03:40:28;;;;;;;28.05;13.20;;;;;;;6.89;100.00;102098.28;4907988;28;20515;-81
2022/01/29 03:43:07;;;;;;;26.77;11.70;;;;;;;6.91;100.00;102095.72;4960376;28;20236;-79
2022/01/29 03:45:36;;;;;;;23.67;12.65;;;;;;;6.91;100.00;102091.34;4986878;28;20051;-80
2022/01/29 03:48:06;;;;;;;27.38;14.10;;;;;;;6.94;100.00;102094.09;4961932;28;20073;-80
2022/01/29 03:50:39;;;;;;;30.77;12.75;;;;;;;6.94;100.00;102093.22;4969539;28;20034;-81
2022/01/29 03:53:07;;;;;;;23.45;12.30;;;;;;;6.96;100.00;102083.69;4960071;28;20046;-79
2022/01/29 03:55:35;;;;;;;31.58;14.05;;;;;;;6.98;100.00;102077.66;4945915;28;20038;-80
2022/01/29 03:58:04;;;;;;;26.98;13.45;;;;;;;7.00;100.00;102075.09;4951196;28;20047;-80
2022/01/29 04:00:32;;;;;;;34.70;14.82;;;;;;;7.01;100.00;102072.53;4946287;28;20038;-80
2022/01/29 04:03:01;;;;;;;23.38;12.90;;;;;;;7.02;100.00;102061.19;4967204;28;20061;-80
2022/01/29 04:05:31;;;;;;;28.73;13.80;;;;;;;7.03;100.00;102056.84;4949753;28;20077;-80
2022/01/29 04:08:00;;;;;;;29.00;14.23;;;;;;;7.05;100.00;102065.69;4964246;28;20311;-80
2022/01/29 04:10:29;;;;;;;31.30;13.60;;;;;;;7.05;100.00;102047.34;4962846;28;20046;-80
2022/01/29 04:12:58;;;;;;;26.10;12.70;;;;;;;7.06;100.00;102049.09;4958202;28;20038;-79
2022/01/29 04:15:26;;;;;;;24.20;12.80;;;;;;;7.07;100.00;102053.53;4979939;28;20042;-79
2022/01/29 04:17:56;;;;;;;28.08;13.68;;;;;;;7.09;100.00;102053.56;4953173;28;20051;-80
2022/01/29 04:20:24;;;;;;;26.35;14.02;;;;;;;7.11;100.00;102028.31;4935369;28;20392;-80
2022/01/29 04:22:53;;;;;;;28.85;15.43;;;;;;;7.11;100.00;102034.44;4965573;28;20359;-80
2022/01/29 04:25:23;;;;;;;20.75;13.48;;;;;;;7.13;100.00;102042.38;4965468;28;20042;-80
2022/01/29 04:27:51;;;;;;;23.30;14.60;;;;;;;7.13;100.00;102037.13;4962290;28;20065;-80
2022/01/29 04:30:41;;;;;;;29.00;15.13;;;;;;;7.15;100.00;102030.22;4964772;28;20033;-79
2022/01/29 04:33:28;;;;;;;28.25;13.80;;;;;;;7.14;100.00;102034.53;4968364;28;20045;-80
2022/01/29 04:35:59;;;;;;;24.50;13.68;;;;;;;7.16;100.00;102021.50;4972413;28;20275;-80
2022/01/29 04:38:29;;;;;;;26.42;14.60;;;;;;;7.17;100.00;102025.91;4942049;28;20054;-83
2022/01/29 04:41:03;;;;;;;33.10;15.98;;;;;;;7.18;100.00;102030.31;4942259;28;20041;-81
2022/01/29 04:43:36;;;;;;;30.50;14.98;;;;;;;7.19;100.00;102025.13;4953458;28;20049;-81
2022/01/29 04:46:08;;;;;;;34.53;15.80;;;;;;;7.19;100.00;102027.75;4955057;28;20076;-79
2022/01/29 04:48:37;;;;;;;23.95;13.70;;;;;;;7.20;100.00;102021.69;4926797;28;20062;-79
2022/01/29 04:51:05;;;;;;;27.42;15.32;;;;;;;7.21;100.00;102022.56;4970678;28;20054;-80
2022/01/29 04:53:34;;;;;;;30.42;15.85;;;;;;;7.20;100.00;102026.00;4936130;28;20050;-80
2022/01/29 04:56:03;;;;;;;26.80;14.52;;;;;;;7.22;100.00;102027.88;4943800;28;20039;-80
2022/01/29 04:58:31;;;;;;;25.80;15.23;;;;;;;7.23;100.00;102020.88;4937493;28;20042;-80
2022/01/29 05:01:00;;;;;;;30.33;15.57;;;;;;;7.23;100.00;102016.53;4962628;28;20047;-81
2022/01/29 05:03:29;;;;;;;30.63;16.30;;;;;;;7.23;100.00;102013.03;4965534;28;20059;-79
2022/01/29 05:05:58;;;;;;;27.85;15.18;;;;;;;7.24;100.00;102017.44;4937532;28;20054;-81
2022/01/29 05:08:26;;;;;;;28.85;15.32;;;;;;;7.23;100.00;102008.66;4965599;28;20046;-80
2022/01/29 05:10:55;;;;;;;28.00;15.48;;;;;;;7.24;100.00;102001.72;4944588;28;20512;-80
2022/01/29 05:13:27;;;;;;;25.08;14.05;;;;;;;7.27;100.00;102006.16;4925974;28;20027;-79
2022/01/29 05:28:17;;;;;;;29.00;15.18;;;;;;;7.31;100.00;102002.78;4951266;28;20515;-79
2022/01/29 05:30:45;;;;;;;28.50;15.70;;;;;;;7.32;100.00;102007.22;4919548;28;20046;-79
2022/01/29 05:33:14;;;;;;;31.60;15.00;;;;;;;7.32;100.00;101986.25;4940938;28;20373;-80
2022/01/29 05:35:48;;;;;;;28.60;15.00;;;;;;;7.33;100.00;101983.66;4961128;28;20177;-79
2022/01/29 05:38:17;;;;;;;29.17;15.13;;;;;;;7.35;100.00;101988.94;4959668;28;20049;-80
2022/01/29 05:40:45;;;;;;;23.65;14.23;;;;;;;7.35;100.00;101978.47;4973270;28;20053;-80
2022/01/29 05:43:14;;;;;;;27.45;15.13;;;;;;;7.36;100.00;101986.38;4928724;28;20050;-80
2022/01/29 05:45:42;;;;;;;33.63;15.65;;;;;;;7.39;100.00;101981.25;4923717;28;20514;-80
2022/01/29 05:48:14;;;;;;;30.17;16.00;;;;;;;7.39;100.00;101982.97;4936214;28;20387;-81
2022/01/29 05:50:42;;;;;;;25.83;14.18;;;;;;;7.40;100.00;101983.03;4955393;28;20514;-80
2022/01/29 05:53:10;;;;;;;28.92;13.95;;;;;;;7.39;100.00;101968.16;4934298;28;20514;-81
2022/01/29 05:55:39;;;;;;;28.63;15.48;;;;;;;7.39;100.00;101962.91;4967544;28;20054;-81
2022/01/29 05:58:07;;;;;;;28.73;14.63;;;;;;;7.40;100.00;101969.91;4947390;28;20053;-79
2022/01/29 06:00:36;;;;;;;27.52;15.52;;;;;;;7.40;100.00;101966.41;4916461;28;20059;-79
2022/01/29 06:03:08;;;;;;;26.10;14.07;;;;;;;7.40;100.00;101963.78;4942246;28;20047;-80
2022/01/29 06:05:37;;;;;;;32.97;16.20;;;;;;;7.40;100.00;101950.66;4977944;28;20054;-80
2022/01/29 06:08:06;;;;;;;25.98;15.15;;;;;;;7.38;100.00;101940.13;4975574;28;20046;-79
2022/01/29 06:10:34;;;;;;;29.02;16.02;;;;;;;7.38;100.00;101941.88;4952862;28;20042;-79
2022/01/29 06:13:11;;;;;;;27.48;14.13;;;;;;;7.37;100.00;101932.19;4965157;28;20050;-80
2022/01/29 06:15:42;;;;;;;30.55;15.18;;;;;;;7.38;100.00;101931.38;4942277;28;20046;-80
2022/01/29 06:18:15;;;;;;;29.02;15.35;;;;;;;7.38;100.00;101927.00;4962081;28;20037;-79
2022/01/29 06:20:45;;;;;;;27.80;15.13;;;;;;;7.39;100.00;101933.13;4978950;28;20587;-80
2022/01/29 06:23:16;;;;;;;;;;;;;;;7.38;100.00;101913.03;4981718;28;20035;-79
2022/01/29 06:25:44;;;;;;;32.95;15.95;;;;;;;7.39;100.00;101914.78;4950704;28;20286;-80
2022/01/29 06:28:13;;;;;;;31.85;17.23;;;;;;;7.39;100.00;101906.91;4934435;28;20050;-79
2022/01/29 06:30:41;;;;;;;27.40;17.08;;;;;;;7.40;100.00;101901.72;4917117;28;20051;-81
2022/01/29 06:33:12;;;;;;;26.75;16.80;;;;;;;7.41;100.00;101900.03;4964435;28;20522;-80
2022/01/29 06:35:42;;;;;;;24.15;15.40;;;;;;;7.43;100.00;101903.59;4962695;28;20042;-81
2022/01/29 06:38:14;;;;;;;29.08;15.68;;;;;;;7.44;100.00;101888.72;4973488;28;20034;-80
2022/01/29 06:40:43;;;;;;;28.67;15.60;;;;;;;7.45;100.00;101880.91;4926964;28;20495;-79
2022/01/29 06:43:12;;;;;;;25.63;14.90;;;;;;;7.46;100.00;101887.94;4976481;28;20046;-80
2022/01/29 06:45:42;;;;;;;26.35;15.20;;;;;;;7.46;100.00;101881.81;4991515;28;20043;-79
2022/01/29 06:48:12;;;;;;;23.77;14.27;;;;;;;7.48;100.00;101887.97;4925461;28;20062;-80
2022/01/29 06:50:40;;;;;;;25.55;13.45;;;;;;;7.48;100.00;101891.50;4969837;28;20046;-79
2022/01/29 06:53:09;;;;;;;28.98;14.77;;;;;;;7.51;100.00;101894.22;4955612;28;20038;-80
2022/01/29 06:55:38;;;;;;;23.55;13.75;;;;;;;7.51;100.00;101890.72;4983697;28;20043;-80
2022/01/29 06:58:06;;;;;;;25.90;14.15;;;;;;;7.52;100.00;101892.47;4960043;28;20038;-80
2022/01/29 07:00:55;;;;;;;26.67;14.13;;;;;;;7.52;100.00;101897.72;4973716;28;20038;-80
2022/01/29 07:03:23;;;;;;;21.92;14.85;;;;;;;7.52;100.00;101889.84;4943913;28;20147;-80
2022/01/29 07:05:52;;;;;;;20.23;13.85;;;;;;;7.53;100.00;101892.53;4969335;28;20496;-80
2022/01/29 07:08:20;;;;;;;28.80;15.18;;;;;;;7.52;100.00;101889.84;4949266;28;20042;-80
2022/01/29 07:10:50;;;;;;;22.83;13.55;;;;;;;7.52;100.00;101889.84;4949033;28;20046;-80
2022/01/29 07:13:20;;;;;;;22.13;13.98;;;;;;;7.52;100.00;101900.34;4964843;28;20038;-80
2022/01/29 07:15:49;;;;;;;28.77;15.02;;;;;;;7.52;100.00;101903.84;4970111;28;20047;-80
2022/01/29 07:18:17;;;;;;;20.00;13.85;;;;;;;7.51;100.00;101893.34;4942952;28;20620;-80
2022/01/29 07:20:47;;;;;;;20.05;12.88;;;;;;;7.50;100.00;101889.81;4953293;28;20051;-79
2022/01/29 07:23:16;;;;;;;25.20;13.35;;;;;;;7.50;100.00;101894.16;4942832;28;20034;-80
2022/01/29 07:25:44;;;;;;;23.95;14.85;;;;;;;7.51;100.00;101890.72;4968990;28;20038;-81
2022/01/29 07:28:13;;;;;;;31.92;15.25;;;;;;;7.51;100.00;101888.09;4940319;28;20061;-79
2022/01/29 07:30:41;;;;;;;19.15;12.77;;;;;;;7.50;100.00;101878.44;4962469;28;20079;-79
2022/01/29 07:33:11;;;;;;;26.75;14.45;;;;;;;7.50;100.00;101874.06;4959398;28;20042;-82
2022/01/29 07:35:39;;;;;;;23.42;13.95;;;;;;;7.50;100.00;101874.06;4967401;28;20058;-80
2022/01/29 07:38:08;;;;;;;20.20;14.40;;;;;;;7.52;100.00;101879.38;4978148;28;20160;-80
2022/01/29 07:40:36;;;;;;;25.73;14.90;;;;;;;7.51;100.00;101877.59;4950361;28;20049;-80
2022/01/29 07:43:05;;;;;;;32.08;15.68;;;;;;;7.51;100.00;101885.47;4979072;28;20483;-80
2022/01/29 07:45:33;;;;;;;26.67;14.70;;;;;;;7.51;100.00;101877.59;4978494;28;20038;-80
2022/01/29 07:48:03;;;;;;;20.13;13.80;;;;;;;7.52;100.00;101875.00;4948479;28;20526;-80
2022/01/29 07:50:31;;;;;;;24.30;13.77;;;;;;;7.53;100.00;101879.41;4938732;28;20654;-79
2022/01/29 07:53:00;;;;;;;23.55;14.73;;;;;;;7.54;100.00;101877.69;4942337;28;20045;-80
2022/01/29 07:55:32;;;;;;;25.23;14.13;;;;;;;7.55;100.00;101874.22;4948590;28;20051;-79
2022/01/29 07:58:02;;;;;;;23.60;13.65;;;;;;;7.55;100.00;101867.25;4989529;28;20049;-81
2022/01/29 08:00:36;;;;;;;23.67;12.23;;;;;;;7.56;100.00;101868.13;4979810;28;20560;-80
2022/01/29 08:03:04;;;;;;;33.42;13.30;;;;;;;7.57;100.00;101864.69;4971537;28;20520;-82
2022/01/29 08:05:35;;;;;;;20.13;11.93;;;;;;;7.58;100.00;101861.19;4946956;28;20062;-81
2022/01/29 08:08:03;;;;;;;21.52;12.55;;;;;;;7.57;100.00;101856.81;4939906;28;20057;-80
2022/01/29 08:10:33;;;;;;;28.85;13.82;;;;;;;7.55;100.00;101848.88;4939168;28;20047;-80
2022/01/29 08:13:01;;;;;;;25.80;13.15;;;;;;;7.55;100.00;101851.50;4983747;28;20183;-80
2022/01/29 08:15:29;;;;;;;26.98;15.10;;;;;;;7.54;100.00;101848.81;4980064;28;20503;-81
2022/01/29 08:17:58;;;;;;;24.25;13.75;;;;;;;7.53;100.00;101842.69;4986922;28;20051;-80
2022/01/29 08:20:26;;;;;;;16.95;12.00;;;;;;;7.52;100.00;101840.91;4960249;28;20049;-79
2022/01/29 08:22:55;;;;;;;28.48;12.98;;;;;;;7.53;100.00;101847.06;4921793;28;20287;-80
2022/01/29 08:25:24;;;;;;;16.48;11.63;;;;;;;7.52;100.00;101827.78;4978319;28;20047;-80
2022/01/29 08:27:52;;;;;;;19.85;12.70;;;;;;;7.52;100.00;101825.16;4963701;28;20262;-80
2022/01/29 08:30:22;;;;;;;25.80;13.00;;;;;;;7.54;100.00;101823.50;4947332;28;20403;-80
2022/01/29 08:32:51;;;;;;;19.17;12.10;;;;;;;7.57;100.00;101814.84;4949220;28;20034;-80
2022/01/29 08:35:19;;;;;;;22.63;12.60;;;;;;;7.59;100.00;101806.16;4967004;28;20038;-80
2022/01/29 08:37:48;;;;;;;18.55;11.27;;;;;;;7.62;100.00;101815.88;4959786;28;20251;-80
2022/01/29 08:40:19;;;;;;;20.58;10.85;;;;;;;7.67;100.00;101806.38;4976395;28;20049;-80
2022/01/29 08:42:48;;;;;;;18.13;10.80;;;;;;;7.72;100.00;101815.31;4994631;28;20077;-81
2022/01/29 08:45:17;;;;;;;18.30;9.85;;;;;;;7.75;100.00;101797.03;4989465;28;20050;-80
2022/01/29 08:47:45;;;;;;;14.18;8.70;;;;;;;7.79;100.00;101804.16;4954936;28;20058;-80
2022/01/29 08:50:14;;;;;;;15.25;9.27;;;;;;;7.84;100.00;101808.66;4954304;28;20039;-80
2022/01/29 08:52:43;;;;;;;15.73;9.20;;;;;;;7.87;100.00;101803.50;4944451;28;20030;-81
2022/01/29 08:55:13;;;;;;;14.40;8.32;;;;;;;7.89;100.00;101799.19;4984415;28;20069;-80
2022/01/29 08:57:42;;;;;;;15.07;8.35;;;;;;;7.92;100.00;101807.13;4977693;28;20057;-81
2022/01/29 09:00:12;;;;;;;13.55;8.93;;;;;;;7.94;100.00;101792.31;4961564;28;20042;-80
2022/01/29 09:02:41;;;;;;;17.80;8.77;;;;;;;7.99;100.00;101785.47;4960351;28;20038;-82
2022/01/29 09:05:12;;;;;;;15.27;7.82;;;;;;;8.02;100.00;101775.06;4993318;28;20043;-80
2022/01/29 09:07:40;;;;;;;;;;;;;;;8.07;100.00;101769.94;4959656;28;20427;-80
2022/01/29 09:10:09;;;;;;;10.40;7.10;;;;;;;8.11;100.00;101763.91;4981028;28;19944;-81
2022/01/29 09:12:37;;;;;;;14.75;6.57;;;;;;;8.16;100.00;101755.31;4953999;28;20340;-80
2022/01/29 09:15:06;;;;;;;10.32;5.93;;;;;;;8.20;100.00;101753.66;4963322;28;20054;-80
2022/01/29 09:17:35;;;;;;;8.98;6.57;;;;;;;8.22;100.00;101740.59;4953471;28;20038;-80
2022/01/29 09:20:04;;;;;;;11.85;6.82;;;;;;;8.24;100.00;101739.81;4971163;28;20042;-81
2022/01/29 09:22:33;;;;;;;14.52;6.18;;;;;;;8.28;100.00;101725.00;4943140;28;20058;-81
2022/01/29 09:25:01;;;;;;;12.93;6.10;;;;;;;8.29;100.00;101716.28;4997920;28;20053;-81
2022/01/29 09:27:30;;;;;;;8.30;5.43;;;;;;;8.31;100.00;101711.97;4951804;28;20061;-81
2022/01/29 09:29:58;;;;;;;12.95;5.60;;;;;;;8.34;100.00;101709.41;4959144;28;20392;-80
2022/01/29 09:32:27;;;;;;;12.80;5.80;;;;;;;8.36;100.00;101695.47;4956795;28;20073;-80
2022/01/29 09:34:55;;;;;;;8.50;5.38;;;;;;;8.38;100.00;101693.78;4984693;28;20038;-82
2022/01/29 09:37:24;;;;;;;9.60;4.93;;;;;;;8.42;100.00;101699.16;4953888;28;20058;-80
2022/01/29 09:39:57;;;;;;;15.30;6.95;;;;;;;8.45;100.00;101678.19;4955451;28;20039;-80
2022/01/29 09:42:26;;;;;;;9.95;5.07;;;;;;;8.47;100.00;101697.50;4937971;28;20042;-82
2022/01/29 09:44:55;;;;;;;13.52;5.78;;;;;;;8.48;100.00;101667.78;4984994;28;20409;-80
2022/01/29 09:47:25;;;;;;;10.68;5.15;;;;;;;8.50;100.00;101680.09;4975025;28;20496;-80
2022/01/29 09:49:56;;;;;;;8.80;4.78;;;;;;;8.52;100.00;101657.38;4941744;28;20042;-80
2022/01/29 09:52:24;;;;;;;12.85;4.72;;;;;;;8.55;100.00;101656.56;4938685;28;20042;-80
2022/01/29 09:54:58;;;;;;;7.18;4.00;;;;;;;8.55;100.00;101657.44;4958014;28;20268;-80
2022/01/29 09:57:27;;;;;;;7.85;4.80;;;;;;;8.56;100.00;101643.47;4979743;28;20046;-80
2022/01/29 09:59:56;;;;;;;12.15;4.28;;;;;;;8.58;100.00;101639.16;4964151;28;20530;-80
2022/01/29 10:02:24;;;;;;;11.60;4.75;;;;;;;8.61;100.00;101627.81;4978344;28;20415;-81
2022/01/29 10:04:57;;;;;;;8.00;4.18;;;;;;;8.65;100.00;101623.53;4939325;28;20043;-81
2022/01/29 10:07:30;;;;;;;6.18;4.13;;;;;;;8.67;100.00;101619.19;4954807;28;20050;-80
2022/01/29 10:10:01;;;;;;;8.20;4.13;;;;;;;8.69;100.00;101610.47;4945142;28;20046;-80
2022/01/29 10:12:31;;;;;;;6.57;3.60;;;;;;;8.74;100.00;101607.97;4936257;28;20534;-81
2022/01/29 10:15:07;;;;;;;10.95;3.92;;;;;;;8.76;100.00;101615.03;4959605;28;20041;-80
2022/01/29 10:17:43;;;;;;;7.63;3.70;;;;;;;8.78;100.00;101607.19;4953747;28;20050;-79
2022/01/29 10:20:17;;;;;;;9.32;4.05;;;;;;;8.79;100.00;101606.34;4965857;28;20166;-80
2022/01/29 10:22:48;;;;;;;9.05;3.80;;;;;;;8.79;100.00;101606.34;4965176;28;20046;-80
2022/01/29 10:25:20;;;;;;;8.20;3.53;;;;;;;8.79;100.00;101593.22;4946369;28;21959;-79
2022/01/29 10:28:06;;;;;;;5.88;3.25;;;;;;;8.79;100.00;101593.22;4963681;28;20078;-82
2022/01/29 10:30:56;;;;;;;6.50;3.05;;;;;;;8.80;100.00;101610.72;4951840;28;20053;-80
2022/01/29 10:33:25;;;;;;;7.03;3.30;;;;;;;8.81;100.00;101608.97;4966883;28;20058;-81
2022/01/29 10:36:02;;;;;;;8.48;3.50;;;;;;;8.81;100.00;101612.53;4969110;28;20304;-81
2022/01/29 10:38:41;;;;;;;5.80;2.78;;;;;;;8.81;100.00;101624.75;4954563;28;20046;-81
2022/01/29 10:41:16;;;;;;;8.20;3.08;;;;;;;8.82;100.00;101613.41;4917820;28;20043;-80
2022/01/29 10:43:56;;;;;;;10.45;2.88;;;;;;;8.82;100.00;101611.66;4954071;28;20050;-81
2022/01/29 10:46:28;;;;;;;7.95;3.00;;;;;;;8.83;100.00;101620.41;4963441;28;20030;-82
2022/01/29 10:49:00;;;;;;;7.85;2.70;;;;;;;8.84;100.00;101623.09;4945564;28;20244;-80
2022/01/29 10:51:28;;;;;;;;;;;;;;;8.84;100.00;101617.81;4951947;28;20077;-80
2022/01/29 10:54:18;;;;;;;6.90;2.33;;;;;;;8.85;100.00;101617.00;4969254;28;20036;-81
2022/01/29 10:57:11;;;;;;;8.00;2.65;;;;;;;8.87;100.00;101604.78;4972284;28;20049;-82
2022/01/29 10:59:53;;;;;;;7.97;2.97;;;;;;;8.90;100.00;101604.84;4943104;28;20154;-80
2022/01/29 11:02:28;;;;;;;10.27;3.00;;;;;;;8.91;100.00;101601.34;4970716;28;20050;-81
2022/01/29 11:05:00;;;;;;;10.10;3.70;;;;;;;8.93;100.00;101590.88;4977970;28;20045;-80
2022/01/29 11:07:30;;;;;;;7.43;3.13;;;;;;;8.94;100.00;101584.75;4945368;28;20325;-80
2022/01/29 11:10:03;;;;;;;7.43;2.45;;;;;;;8.95;100.00;101583.91;4945419;28;20496;-82
2022/01/29 11:12:38;;;;;;;5.15;2.20;;;;;;;8.96;100.00;101573.44;4934006;28;20756;-80
2022/01/29 11:15:08;;;;;;;14.90;3.00;;;;;;;8.99;100.00;101569.97;4964487;28;20042;-80
2022/01/29 11:17:37;;;;;;;7.88;2.20;;;;;;;8.99;100.00;101556.81;4988810;28;20500;-80
2022/01/29 11:20:07;;;;;;;8.65;2.90;;;;;;;9.01;100.00;101563.00;4962971;28;20035;-80
2022/01/29 11:22:41;;;;;;;5.90;2.50;;;;;;;9.01;100.00;101573.50;4961043;28;20172;-81
2022/01/29 11:25:14;;;;;;;5.60;2.20;;;;;;;9.03;100.00;101581.44;4991236;28;20061;-82
2022/01/29 11:27:44;;;;;;;5.70;2.63;;;;;;;9.04;100.00;101551.69;4968450;28;20261;-81
2022/01/29 11:30:15;;;;;;;5.47;2.40;;;;;;;9.04;100.00;101568.34;4913219;28;20034;-80
2022/01/29 11:32:52;;;;;;;7.60;2.25;;;;;;;9.05;100.00;101553.44;4956213;28;20292;-81
2022/01/29 11:35:26;;;;;;;5.40;2.63;;;;;;;9.07;100.00;101546.47;4969723;28;20042;-81
2022/01/29 11:38:04;;;;;;;7.45;2.47;;;;;;;9.06;100.00;101539.44;4965214;28;20050;-80
2022/01/29 11:40:54;;;;;;;7.90;2.70;;;;;;;9.08;100.00;101543.00;4956594;28;20047;-80